createdAt,value
2019-02-28T00:00:44.400Z,10.10
2019-02-28T00:01:46.468Z,10.20
2019-02-28T00:02:44.408Z,10.00
2019-02-28T00:04:43.355Z,10.20
2019-02-28T00:05:44.346Z,10.40
2019-02-28T00:06:45.147Z,10.40
2019-02-28T00:07:44.331Z,10.10
2019-02-28T00:08:53.693Z,10.60
2019-02-28T00:09:44.308Z,9.70
2019-02-28T00:10:44.296Z,10.20
2019-02-28T00:11:44.280Z,10.20
2019-02-28T00:12:45.284Z,10.30
2019-02-28T00:13:44.249Z,9.70
2019-02-28T00:14:45.596Z,9.80
2019-02-28T00:15:44.264Z,9.70
2019-02-28T00:16:44.229Z,9.60
2019-02-28T00:17:44.215Z,9.90
2019-02-28T00:18:44.206Z,9.30
2019-02-28T00:19:44.194Z,10.30
2019-02-28T00:20:46.980Z,9.40
2019-02-28T00:21:44.196Z,10.10
2019-02-28T00:22:49.184Z,9.70
2019-02-28T00:23:44.176Z,8.90
2019-02-28T00:24:44.135Z,9.80
2019-02-28T00:25:44.126Z,9.60
2019-02-28T00:26:47.567Z,9.50
2019-02-28T00:27:44.112Z,9.00
2019-02-28T00:28:44.090Z,9.60
2019-02-28T00:29:46.017Z,10.10
2019-02-28T00:31:49.433Z,10.20
2019-02-28T00:32:44.052Z,10.00
2019-02-28T00:33:44.042Z,10.60
2019-02-28T00:34:44.034Z,9.90
2019-02-28T00:35:44.683Z,10.20
2019-02-28T00:36:44.013Z,9.80
2019-02-28T00:37:43.992Z,10.10
2019-02-28T00:38:44.024Z,8.70
2019-02-28T00:39:43.972Z,10.40
2019-02-28T00:40:43.964Z,10.70
2019-02-28T00:41:46.484Z,10.20
2019-02-28T00:42:43.940Z,10.60
2019-02-28T00:43:43.936Z,11.10
2019-02-28T00:44:43.942Z,10.60
2019-02-28T00:45:43.912Z,10.50
2019-02-28T00:46:45.232Z,10.60
2019-02-28T00:47:43.878Z,10.40
2019-02-28T00:48:43.923Z,10.90
2019-02-28T00:49:43.869Z,11.00
2019-02-28T00:50:43.860Z,10.70
2019-02-28T00:51:43.844Z,11.00
2019-02-28T00:52:43.827Z,10.70
2019-02-28T00:53:43.822Z,11.40
2019-02-28T00:54:44.516Z,11.10
2019-02-28T00:55:45.984Z,11.30
2019-02-28T00:56:43.784Z,10.40
2019-02-28T00:57:43.774Z,11.60
2019-02-28T00:58:43.770Z,11.30
2019-02-28T00:59:43.750Z,11.30
2019-02-28T01:00:43.776Z,11.20
2019-02-28T01:01:46.049Z,11.60
2019-02-28T01:02:43.724Z,11.10
2019-02-28T01:03:43.729Z,11.30
2019-02-28T01:04:43.713Z,11.30
2019-02-28T01:05:43.688Z,11.20
2019-02-28T01:06:43.684Z,11.70
2019-02-28T01:08:42.690Z,10.60
2019-02-28T01:09:43.656Z,11.10
2019-02-28T01:10:43.670Z,10.40
2019-02-28T01:11:44.929Z,10.90
2019-02-28T01:12:43.619Z,10.80
2019-02-28T01:13:43.602Z,11.30
2019-02-28T01:14:43.594Z,10.20
2019-02-28T01:15:46.485Z,10.80
2019-02-28T01:16:43.594Z,11.50
2019-02-28T01:17:43.553Z,10.50
2019-02-28T01:18:43.542Z,11.10
2019-02-28T01:19:43.540Z,10.60
2019-02-28T01:20:43.518Z,10.40
2019-02-28T01:21:43.509Z,10.50
2019-02-28T01:22:43.530Z,10.60
2019-02-28T01:23:43.499Z,11.00
2019-02-28T01:24:43.485Z,10.30
2019-02-28T01:25:43.467Z,11.00
2019-02-28T01:26:46.720Z,10.80
2019-02-28T01:27:43.445Z,10.90
2019-02-28T01:28:45.957Z,10.80
2019-02-28T01:29:43.427Z,10.60
2019-02-28T01:30:43.411Z,11.00
2019-02-28T01:31:43.495Z,10.90
2019-02-28T01:32:43.393Z,12.00
2019-02-28T01:34:42.371Z,10.90
2019-02-28T01:35:43.368Z,10.90
2019-02-28T01:36:45.944Z,11.10
2019-02-28T01:37:43.341Z,10.90
2019-02-28T01:38:43.328Z,10.70
2019-02-28T01:39:43.317Z,11.30
2019-02-28T01:40:43.308Z,11.40
2019-02-28T01:41:45.182Z,11.00
2019-02-28T01:42:43.284Z,10.50
2019-02-28T01:43:43.272Z,10.60
2019-02-28T01:44:43.268Z,10.70
2019-02-28T01:45:44.301Z,11.10
2019-02-28T01:46:43.367Z,11.00
2019-02-28T01:47:43.238Z,10.50
2019-02-28T01:48:43.226Z,10.90
2019-02-28T01:49:43.209Z,11.40
2019-02-28T01:51:42.181Z,10.90
2019-02-28T01:52:45.974Z,11.00
2019-02-28T01:53:43.164Z,11.00
2019-02-28T01:54:43.159Z,11.40
2019-02-28T01:55:43.146Z,11.30
2019-02-28T01:56:43.131Z,11.70
2019-02-28T01:57:44.346Z,11.10
2019-02-28T01:58:43.157Z,11.20
2019-02-28T01:59:43.115Z,10.40
2019-02-28T02:00:43.095Z,11.70
2019-02-28T02:01:43.087Z,11.50
2019-02-28T02:02:43.077Z,11.30
2019-02-28T02:03:43.055Z,11.20
2019-02-28T02:04:45.540Z,11.60
2019-02-28T02:05:43.035Z,11.50
2019-02-28T02:06:43.025Z,10.70
2019-02-28T02:07:43.023Z,10.90
2019-02-28T02:08:43.006Z,10.70
2019-02-28T02:09:46.105Z,11.30
2019-02-28T02:10:43.013Z,11.30
2019-02-28T02:11:43.001Z,11.50
2019-02-28T02:12:42.962Z,11.30
2019-02-28T02:13:42.945Z,11.40
2019-02-28T02:14:45.653Z,10.90
2019-02-28T02:15:45.441Z,11.40
2019-02-28T02:16:42.915Z,11.90
2019-02-28T02:17:42.933Z,11.10
2019-02-28T02:18:43.327Z,10.40
2019-02-28T02:19:42.885Z,11.40
2019-02-28T02:20:42.876Z,10.50
2019-02-28T02:21:42.870Z,10.40
2019-02-28T02:22:44.592Z,10.60
2019-02-28T02:23:42.876Z,10.20
2019-02-28T02:24:42.845Z,10.00
2019-02-28T02:25:42.819Z,11.20
2019-02-28T02:26:45.227Z,10.30
2019-02-28T02:27:42.811Z,10.40
2019-02-28T02:29:41.782Z,10.10
2019-02-28T02:30:42.766Z,10.00
2019-02-28T02:31:43.695Z,10.80
2019-02-28T02:32:42.783Z,9.60
2019-02-28T02:33:42.734Z,10.50
2019-02-28T02:34:42.753Z,10.20
2019-02-28T02:35:43.642Z,9.90
2019-02-28T02:36:42.709Z,10.70
2019-02-28T02:37:42.693Z,10.70
2019-02-28T02:38:42.688Z,11.00
2019-02-28T02:39:42.708Z,11.00
2019-02-28T02:41:42.433Z,10.70
2019-02-28T02:42:47.230Z,11.10
2019-02-28T02:43:42.627Z,10.90
2019-02-28T02:44:42.614Z,10.90
2019-02-28T02:45:43.781Z,10.90
2019-02-28T02:46:42.601Z,11.30
2019-02-28T02:47:43.433Z,11.20
2019-02-28T02:48:43.406Z,11.00
2019-02-28T02:49:42.590Z,10.70
2019-02-28T02:50:42.552Z,10.80
2019-02-28T02:51:49.170Z,10.90
2019-02-28T02:52:42.530Z,11.10
2019-02-28T02:53:43.371Z,10.60
2019-02-28T02:54:42.534Z,10.40
2019-02-28T02:55:42.493Z,11.10
2019-02-28T02:56:42.512Z,10.20
2019-02-28T02:57:42.488Z,10.50
2019-02-28T02:58:42.466Z,11.50
2019-02-28T02:59:42.472Z,10.00
2019-02-28T03:00:49.630Z,11.30
2019-02-28T03:01:42.429Z,11.50
2019-02-28T03:02:42.433Z,10.90
2019-02-28T03:03:44.293Z,10.80
2019-02-28T03:04:42.410Z,10.90
2019-02-28T03:05:42.392Z,11.40
2019-02-28T03:06:45.936Z,11.20
2019-02-28T03:07:42.371Z,10.90
2019-02-28T03:08:42.362Z,10.40
2019-02-28T03:09:43.782Z,10.30
2019-02-28T03:10:42.338Z,10.00
2019-02-28T03:11:42.328Z,10.20
2019-02-28T03:12:42.335Z,10.50
2019-02-28T03:13:44.036Z,10.10
2019-02-28T03:14:42.339Z,9.80
2019-02-28T03:15:42.286Z,10.30
2019-02-28T03:16:42.271Z,10.10
2019-02-28T03:17:46.688Z,10.30
2019-02-28T03:18:42.254Z,9.60
2019-02-28T03:19:42.240Z,9.80
2019-02-28T03:20:42.597Z,10.20
2019-02-28T03:21:42.224Z,10.50
2019-02-28T03:22:42.212Z,9.90
2019-02-28T03:23:42.197Z,9.80
2019-02-28T03:24:42.197Z,9.40
2019-02-28T03:25:42.170Z,10.60
2019-02-28T03:26:43.360Z,9.50
2019-02-28T03:27:42.147Z,9.60
2019-02-28T03:28:42.141Z,9.80
2019-02-28T03:29:43.934Z,10.80
2019-02-28T03:30:42.121Z,9.30
2019-02-28T03:31:42.121Z,9.50
2019-02-28T03:32:42.859Z,9.50
2019-02-28T03:33:42.088Z,10.40
2019-02-28T03:34:54.979Z,9.90
2019-02-28T03:35:44.150Z,9.50
2019-02-28T03:36:42.922Z,9.80
2019-02-28T03:37:42.083Z,9.90
2019-02-28T03:38:48.471Z,10.10
2019-02-28T03:39:42.023Z,10.60
2019-02-28T03:40:42.016Z,9.90
2019-02-28T03:41:41.999Z,9.50
2019-02-28T03:42:42.055Z,9.50
2019-02-28T03:43:43.835Z,10.10
2019-02-28T03:44:41.974Z,9.70
2019-02-28T03:45:41.957Z,9.30
2019-02-28T03:46:46.429Z,9.80
2019-02-28T03:47:41.945Z,9.60
2019-02-28T03:48:41.928Z,9.20
2019-02-28T03:49:48.675Z,9.10
2019-02-28T03:50:44.410Z,9.00
2019-02-28T03:51:41.897Z,9.20
2019-02-28T03:52:44.300Z,9.10
2019-02-28T03:53:41.877Z,9.60
2019-02-28T03:54:41.858Z,9.20
2019-02-28T03:55:41.852Z,9.60
2019-02-28T03:56:41.840Z,9.40
2019-02-28T03:57:41.836Z,10.30
2019-02-28T03:58:43.178Z,9.00
2019-02-28T03:59:41.823Z,9.90
2019-02-28T04:00:42.414Z,9.90
2019-02-28T04:01:45.641Z,17.00
2019-02-28T04:02:41.783Z,14.00
2019-02-28T04:03:41.760Z,11.10
2019-02-28T04:04:48.819Z,11.20
2019-02-28T04:05:41.751Z,9.30
2019-02-28T04:06:41.757Z,10.20
2019-02-28T04:07:41.727Z,10.20
2019-02-28T04:08:41.720Z,10.30
2019-02-28T04:09:44.325Z,9.90
2019-02-28T04:10:42.404Z,9.90
2019-02-28T04:11:41.676Z,9.60
2019-02-28T04:12:45.632Z,10.80
2019-02-28T04:13:41.679Z,10.50
2019-02-28T04:14:42.411Z,10.00
2019-02-28T04:15:49.561Z,10.00
2019-02-28T04:16:41.641Z,10.40
2019-02-28T04:17:42.454Z,10.30
2019-02-28T04:18:45.904Z,10.20
2019-02-28T04:19:41.588Z,10.00
2019-02-28T04:20:41.588Z,10.00
2019-02-28T04:21:46.216Z,10.30
2019-02-28T04:22:41.573Z,10.50
2019-02-28T04:23:41.570Z,10.20
2019-02-28T04:24:46.330Z,10.50
2019-02-28T04:25:41.526Z,10.50
2019-02-28T04:26:41.518Z,11.20
2019-02-28T04:27:42.040Z,11.40
2019-02-28T04:28:41.507Z,11.10
2019-02-28T04:29:41.482Z,11.60
2019-02-28T04:30:43.768Z,11.70
2019-02-28T04:31:41.469Z,11.10
2019-02-28T04:32:41.481Z,11.70
2019-02-28T04:33:41.446Z,11.30
2019-02-28T04:34:41.437Z,11.70
2019-02-28T04:35:41.423Z,11.60
2019-02-28T04:36:41.416Z,10.50
2019-02-28T04:37:46.737Z,10.70
2019-02-28T04:38:41.392Z,10.60
2019-02-28T04:39:41.372Z,12.80
2019-02-28T04:40:41.383Z,11.80
2019-02-28T04:41:41.367Z,12.80
2019-02-28T04:42:41.347Z,11.40
2019-02-28T04:43:41.562Z,11.10
2019-02-28T04:44:41.318Z,10.90
2019-02-28T04:45:41.316Z,10.60
2019-02-28T04:46:41.307Z,11.10
2019-02-28T04:47:41.681Z,11.90
2019-02-28T04:48:41.276Z,11.60
2019-02-28T04:49:41.299Z,11.90
2019-02-28T04:50:41.255Z,11.70
2019-02-28T04:51:41.245Z,10.80
2019-02-28T04:52:46.758Z,10.20
2019-02-28T04:53:41.222Z,10.80
2019-02-28T04:54:41.216Z,11.20
2019-02-28T04:55:41.224Z,11.10
2019-02-28T04:56:42.291Z,8.60
2019-02-28T04:57:41.898Z,9.90
2019-02-28T04:58:41.172Z,9.70
2019-02-28T04:59:41.208Z,10.50
2019-02-28T05:00:41.151Z,9.90
2019-02-28T05:01:41.134Z,9.90
2019-02-28T05:02:41.136Z,9.30
2019-02-28T05:03:43.891Z,9.80
2019-02-28T05:04:41.892Z,9.50
2019-02-28T05:05:41.126Z,9.80
2019-02-28T05:06:41.086Z,9.90
2019-02-28T05:07:41.081Z,9.70
2019-02-28T05:08:41.074Z,10.60
2019-02-28T05:09:41.050Z,11.30
2019-02-28T05:10:41.047Z,11.10
2019-02-28T05:11:41.058Z,11.20
2019-02-28T05:12:41.276Z,12.20
2019-02-28T05:13:41.285Z,12.50
2019-02-28T05:14:41.000Z,12.80
2019-02-28T05:15:41.175Z,11.80
2019-02-28T05:17:39.968Z,11.30
2019-02-28T05:18:40.964Z,11.70
2019-02-28T05:19:40.946Z,11.40
2019-02-28T05:20:44.689Z,11.50
2019-02-28T05:21:40.922Z,10.80
2019-02-28T05:23:40.386Z,11.70
2019-02-28T05:24:42.678Z,12.20
2019-02-28T05:25:40.877Z,9.00
2019-02-28T05:26:40.863Z,11.50
2019-02-28T05:27:40.864Z,12.40
2019-02-28T05:28:41.383Z,13.70
2019-02-28T05:29:43.867Z,13.20
2019-02-28T05:30:41.532Z,12.30
2019-02-28T05:31:40.813Z,13.00
2019-02-28T05:32:40.802Z,12.40
2019-02-28T05:33:41.886Z,12.30
2019-02-28T05:34:40.804Z,13.30
2019-02-28T05:36:39.762Z,12.00
2019-02-28T05:37:46.677Z,11.50
2019-02-28T05:38:40.740Z,11.60
2019-02-28T05:39:40.753Z,12.10
2019-02-28T05:40:41.498Z,10.10
2019-02-28T05:41:40.706Z,11.80
2019-02-28T05:42:40.699Z,12.00
2019-02-28T05:43:41.382Z,12.00
2019-02-28T05:44:43.378Z,12.60
2019-02-28T05:45:40.696Z,11.50
2019-02-28T05:46:40.649Z,11.40
2019-02-28T05:47:46.336Z,13.70
2019-02-28T05:48:40.633Z,10.90
2019-02-28T05:49:41.083Z,13.00
2019-02-28T05:50:40.605Z,10.60
2019-02-28T05:51:40.619Z,11.90
2019-02-28T05:52:40.581Z,12.40
2019-02-28T05:53:42.444Z,13.90
2019-02-28T05:54:40.566Z,14.30
2019-02-28T05:55:40.552Z,11.60
2019-02-28T05:56:40.558Z,13.00
2019-02-28T05:57:43.498Z,12.70
2019-02-28T05:58:40.524Z,13.00
2019-02-28T05:59:40.518Z,15.50
2019-02-28T06:00:40.504Z,14.00
2019-02-28T06:01:43.586Z,14.00
2019-02-28T06:02:40.477Z,14.40
2019-02-28T06:03:40.498Z,14.80
2019-02-28T06:04:40.459Z,13.30
2019-02-28T06:05:43.388Z,14.20
2019-02-28T06:06:40.437Z,10.10
2019-02-28T06:07:40.437Z,15.60
2019-02-28T06:08:40.418Z,15.10
2019-02-28T06:09:40.426Z,13.70
2019-02-28T06:10:41.375Z,14.00
2019-02-28T06:11:40.382Z,13.40
2019-02-28T06:12:43.963Z,10.30
2019-02-28T06:14:39.346Z,9.00
2019-02-28T06:15:40.367Z,9.30
2019-02-28T06:16:40.361Z,11.60
2019-02-28T06:17:40.315Z,11.80
2019-02-28T06:18:40.869Z,13.90
2019-02-28T06:19:43.389Z,10.40
2019-02-28T06:20:40.277Z,9.20
2019-02-28T06:21:40.279Z,9.90
2019-02-28T06:22:40.297Z,9.90
2019-02-28T06:23:40.992Z,11.50
2019-02-28T06:24:40.234Z,11.20
2019-02-28T06:25:40.247Z,10.20
2019-02-28T06:26:40.209Z,11.70
2019-02-28T06:27:41.824Z,11.30
2019-02-28T06:28:40.192Z,11.60
2019-02-28T06:29:40.182Z,10.50
2019-02-28T06:30:41.479Z,10.40
2019-02-28T06:31:40.166Z,10.80
2019-02-28T06:32:40.148Z,10.10
2019-02-28T06:33:40.150Z,10.90
2019-02-28T06:34:42.208Z,10.30
2019-02-28T06:35:40.120Z,9.70
2019-02-28T06:37:39.195Z,10.00
2019-02-28T06:38:40.078Z,10.50
2019-02-28T06:40:39.404Z,10.20
2019-02-28T06:41:40.794Z,10.50
2019-02-28T06:42:40.043Z,10.20
2019-02-28T06:43:40.043Z,10.50
2019-02-28T06:44:40.018Z,10.40
2019-02-28T06:45:40.052Z,9.70
2019-02-28T06:46:40.832Z,9.70
2019-02-28T06:47:39.983Z,10.80
2019-02-28T06:48:39.992Z,11.80
2019-02-28T06:49:41.835Z,11.90
2019-02-28T06:50:39.946Z,11.20
2019-02-28T06:51:39.966Z,12.40
2019-02-28T06:52:39.928Z,11.70
2019-02-28T06:54:39.912Z,11.10
2019-02-28T06:55:39.934Z,12.40
2019-02-28T06:56:39.884Z,12.10
2019-02-28T06:57:39.898Z,11.40
2019-02-28T06:58:39.872Z,12.60
2019-02-28T06:59:39.911Z,12.90
2019-02-28T07:00:40.386Z,11.60
2019-02-28T07:01:40.396Z,10.80
2019-02-28T07:02:39.812Z,10.90
2019-02-28T07:03:39.920Z,13.80
2019-02-28T07:04:39.792Z,13.10
2019-02-28T07:05:39.816Z,10.40
2019-02-28T07:06:39.773Z,10.50
2019-02-28T07:07:39.770Z,11.90
2019-02-28T07:08:39.760Z,11.50
2019-02-28T07:09:40.381Z,12.20
2019-02-28T07:10:41.529Z,12.30
2019-02-28T07:11:40.350Z,10.60
2019-02-28T07:12:39.710Z,10.80
2019-02-28T07:13:40.225Z,10.60
2019-02-28T07:14:39.719Z,10.50
2019-02-28T07:15:39.682Z,12.20
2019-02-28T07:16:39.724Z,13.00
2019-02-28T07:17:42.713Z,10.80
2019-02-28T07:19:38.626Z,11.50
2019-02-28T07:20:42.348Z,10.60
2019-02-28T07:21:43.242Z,11.60
2019-02-28T07:22:40.150Z,12.30
2019-02-28T07:23:39.586Z,11.30
2019-02-28T07:24:39.629Z,12.80
2019-02-28T07:25:40.350Z,11.50
2019-02-28T07:26:39.554Z,11.10
2019-02-28T07:27:39.545Z,11.90
2019-02-28T07:28:40.366Z,12.30
2019-02-28T07:29:42.754Z,12.20
2019-02-28T07:30:39.552Z,12.40
2019-02-28T07:31:42.350Z,12.00
2019-02-28T07:32:39.490Z,12.80
2019-02-28T07:33:41.273Z,13.30
2019-02-28T07:34:39.467Z,13.20
2019-02-28T07:35:42.348Z,12.80
2019-02-28T07:36:41.518Z,14.10
2019-02-28T07:37:42.344Z,15.10
2019-02-28T07:38:39.442Z,14.60
2019-02-28T07:39:40.436Z,14.30
2019-02-28T07:40:39.398Z,15.20
2019-02-28T07:41:41.378Z,15.00
2019-02-28T07:42:39.380Z,16.50
2019-02-28T07:43:39.390Z,16.10
2019-02-28T07:44:39.355Z,16.20
2019-02-28T07:45:39.405Z,17.20
2019-02-28T07:46:42.406Z,18.10
2019-02-28T07:47:39.321Z,18.20
2019-02-28T07:48:39.381Z,19.00
2019-02-28T07:49:39.306Z,18.60
2019-02-28T07:50:39.319Z,18.60
2019-02-28T07:51:39.283Z,18.90
2019-02-28T07:52:39.278Z,18.60
2019-02-28T07:53:40.933Z,20.20
2019-02-28T07:54:39.271Z,19.70
2019-02-28T07:55:39.256Z,20.80
2019-02-28T07:56:43.130Z,20.60
2019-02-28T07:57:39.226Z,19.70
2019-02-28T07:58:39.203Z,20.40
2019-02-28T07:59:42.351Z,20.60
2019-02-28T08:00:39.190Z,21.30
2019-02-28T08:01:39.189Z,20.90
2019-02-28T08:02:39.995Z,21.50
2019-02-28T08:03:43.489Z,20.60
2019-02-28T08:04:39.158Z,20.30
2019-02-28T08:05:39.138Z,21.80
2019-02-28T08:06:41.839Z,21.40
2019-02-28T08:07:39.104Z,21.60
2019-02-28T08:08:39.096Z,21.80
2019-02-28T08:09:41.831Z,22.00
2019-02-28T08:10:39.108Z,21.90
2019-02-28T08:11:39.056Z,22.40
2019-02-28T08:12:39.060Z,22.00
2019-02-28T08:13:39.031Z,21.60
2019-02-28T08:14:39.078Z,21.50
2019-02-28T08:15:39.019Z,22.80
2019-02-28T08:16:39.006Z,23.50
2019-02-28T08:17:40.637Z,23.20
2019-02-28T08:18:38.984Z,22.10
2019-02-28T08:19:38.972Z,22.90
2019-02-28T08:20:39.838Z,23.70
2019-02-28T08:21:43.975Z,23.40
2019-02-28T08:22:38.946Z,23.50
2019-02-28T08:23:38.926Z,23.00
2019-02-28T08:24:38.910Z,23.90
2019-02-28T08:25:42.818Z,24.40
2019-02-28T08:26:39.383Z,23.80
2019-02-28T08:27:38.884Z,23.00
2019-02-28T08:28:38.874Z,23.50
2019-02-28T08:29:38.863Z,24.50
2019-02-28T08:30:38.856Z,23.50
2019-02-28T08:31:38.890Z,23.90
2019-02-28T08:32:42.392Z,24.30
2019-02-28T08:33:38.818Z,24.00
2019-02-28T08:34:38.813Z,24.70
2019-02-28T08:36:37.808Z,24.10
2019-02-28T08:37:38.770Z,24.10
2019-02-28T08:38:38.777Z,24.00
2019-02-28T08:39:41.160Z,24.10
2019-02-28T08:40:38.753Z,23.10
2019-02-28T08:41:38.783Z,23.90
2019-02-28T08:42:39.744Z,24.40
2019-02-28T08:43:38.705Z,24.00
2019-02-28T08:44:38.710Z,23.30
2019-02-28T08:45:38.697Z,24.10
2019-02-28T08:46:38.711Z,24.70
2019-02-28T08:47:41.329Z,24.00
2019-02-28T08:48:41.330Z,25.30
2019-02-28T08:49:44.552Z,23.90
2019-02-28T08:50:38.632Z,24.20
2019-02-28T08:51:38.634Z,24.70
2019-02-28T08:52:41.015Z,24.50
2019-02-28T08:53:38.602Z,25.80
2019-02-28T08:54:38.593Z,24.60
2019-02-28T08:55:39.616Z,24.80
2019-02-28T08:56:38.607Z,25.90
2019-02-28T08:57:38.554Z,24.60
2019-02-28T08:58:38.576Z,25.60
2019-02-28T08:59:38.529Z,25.60
2019-02-28T09:00:38.558Z,25.80
2019-02-28T09:01:41.256Z,26.70
2019-02-28T09:02:38.565Z,25.40
2019-02-28T09:03:40.544Z,24.20
2019-02-28T09:04:41.516Z,26.30
2019-02-28T09:05:38.477Z,25.00
2019-02-28T09:06:41.065Z,25.70
2019-02-28T09:07:41.348Z,26.60
2019-02-28T09:08:38.432Z,27.20
2019-02-28T09:09:41.325Z,27.20
2019-02-28T09:10:38.410Z,25.50
2019-02-28T09:11:39.328Z,25.00
2019-02-28T09:12:38.421Z,25.50
2019-02-28T09:13:39.967Z,26.20
2019-02-28T09:14:38.378Z,26.30
2019-02-28T09:15:38.382Z,25.00
2019-02-28T09:16:40.822Z,24.60
2019-02-28T09:17:38.341Z,26.40
2019-02-28T09:18:41.325Z,26.20
2019-02-28T09:19:38.316Z,25.90
2019-02-28T09:20:38.305Z,26.40
2019-02-28T09:21:38.293Z,25.60
2019-02-28T09:22:38.281Z,27.00
2019-02-28T09:23:38.517Z,25.90
2019-02-28T09:24:38.415Z,26.50
2019-02-28T09:25:38.244Z,26.20
2019-02-28T09:26:38.236Z,27.50
2019-02-28T09:27:38.988Z,26.30
2019-02-28T09:28:38.218Z,26.80
2019-02-28T09:30:37.196Z,26.00
2019-02-28T09:31:39.091Z,26.90
2019-02-28T09:32:40.818Z,26.10
2019-02-28T09:33:38.163Z,27.40
2019-02-28T09:34:38.154Z,27.40
2019-02-28T09:35:38.379Z,25.60
2019-02-28T09:36:38.123Z,26.10
2019-02-28T09:37:38.113Z,27.10
2019-02-28T09:38:42.315Z,27.10
2019-02-28T09:39:38.130Z,25.30
2019-02-28T09:40:41.314Z,25.90
2019-02-28T09:41:40.183Z,26.50
2019-02-28T09:42:38.069Z,27.30
2019-02-28T09:43:38.057Z,26.00
2019-02-28T09:44:38.030Z,26.10
2019-02-28T09:45:39.881Z,27.30
2019-02-28T09:46:38.017Z,25.50
2019-02-28T09:47:38.014Z,25.70
2019-02-28T09:48:38.073Z,26.80
2019-02-28T09:49:38.020Z,26.20
2019-02-28T09:50:37.977Z,26.00
2019-02-28T09:51:37.963Z,25.50
2019-02-28T09:52:41.414Z,25.40
2019-02-28T09:53:37.945Z,27.40
2019-02-28T09:54:37.970Z,25.50
2019-02-28T09:55:39.815Z,25.00
2019-02-28T09:56:41.154Z,25.50
2019-02-28T09:57:37.928Z,25.70
2019-02-28T09:58:37.903Z,26.50
2019-02-28T09:59:38.640Z,26.10
2019-02-28T10:00:38.812Z,25.20
2019-02-28T10:01:37.877Z,24.60
2019-02-28T10:02:40.453Z,24.40
2019-02-28T10:03:38.016Z,25.20
2019-02-28T10:04:37.863Z,23.90
2019-02-28T10:05:39.044Z,24.80
2019-02-28T10:06:37.808Z,23.60
2019-02-28T10:07:37.795Z,24.50
2019-02-28T10:08:40.312Z,24.90
2019-02-28T10:09:40.510Z,24.10
2019-02-28T10:10:37.800Z,24.10
2019-02-28T10:11:37.754Z,24.60
2019-02-28T10:12:42.042Z,24.70
2019-02-28T10:13:37.730Z,24.80
2019-02-28T10:14:40.308Z,25.00
2019-02-28T10:15:38.649Z,25.00
2019-02-28T10:16:37.737Z,24.70
2019-02-28T10:17:38.301Z,25.30
2019-02-28T10:18:40.306Z,24.80
2019-02-28T10:19:45.506Z,25.90
2019-02-28T10:20:37.657Z,25.70
2019-02-28T10:21:39.651Z,25.50
2019-02-28T10:22:37.655Z,27.30
2019-02-28T10:24:39.305Z,26.30
2019-02-28T10:25:43.274Z,26.60
2019-02-28T10:26:37.583Z,27.20
2019-02-28T10:27:37.579Z,27.70
2019-02-28T10:28:37.568Z,27.30
2019-02-28T10:29:38.433Z,27.40
2019-02-28T10:30:38.307Z,27.50
2019-02-28T10:31:38.427Z,27.90
2019-02-28T10:32:40.368Z,27.20
2019-02-28T10:33:40.319Z,29.30
2019-02-28T10:34:40.305Z,28.60
2019-02-28T10:35:37.714Z,28.20
2019-02-28T10:36:37.474Z,28.40
2019-02-28T10:37:37.517Z,28.10
2019-02-28T10:38:37.458Z,28.10
2019-02-28T10:39:43.161Z,28.10
2019-02-28T10:40:37.441Z,29.00
2019-02-28T10:41:37.420Z,27.50
2019-02-28T10:42:40.225Z,27.30
2019-02-28T10:43:37.399Z,27.80
2019-02-28T10:44:37.385Z,27.10
2019-02-28T10:45:40.892Z,27.40
2019-02-28T10:46:37.366Z,27.90
2019-02-28T10:47:37.367Z,28.30
2019-02-28T10:48:41.805Z,29.10
2019-02-28T10:49:37.329Z,26.90
2019-02-28T10:50:37.348Z,27.60
2019-02-28T10:51:37.311Z,26.50
2019-02-28T10:52:37.300Z,27.50
2019-02-28T10:53:39.320Z,28.00
2019-02-28T10:54:37.294Z,27.20
2019-02-28T10:56:36.248Z,28.50
2019-02-28T10:57:40.419Z,29.60
2019-02-28T10:58:37.226Z,28.30
2019-02-28T10:59:37.242Z,28.00
2019-02-28T11:00:37.214Z,27.70
2019-02-28T11:01:41.587Z,28.60
2019-02-28T11:02:37.217Z,29.30
2019-02-28T11:03:37.176Z,28.10
2019-02-28T11:04:42.880Z,29.60
2019-02-28T11:05:37.193Z,28.60
2019-02-28T11:06:37.175Z,28.60
2019-02-28T11:07:37.885Z,26.70
2019-02-28T11:08:37.147Z,27.10
2019-02-28T11:09:37.103Z,25.70
2019-02-28T11:10:37.093Z,27.80
2019-02-28T11:11:37.796Z,27.00
2019-02-28T11:12:37.092Z,27.60
2019-02-28T11:13:37.063Z,27.30
2019-02-28T11:14:38.850Z,27.00
2019-02-28T11:15:37.038Z,28.30
2019-02-28T11:16:37.030Z,25.80
2019-02-28T11:17:37.059Z,27.90
2019-02-28T11:18:37.017Z,28.00
2019-02-28T11:19:37.008Z,28.30
2019-02-28T11:20:37.007Z,25.80
2019-02-28T11:21:36.978Z,25.90
2019-02-28T11:22:39.905Z,26.10
2019-02-28T11:23:36.958Z,26.70
2019-02-28T11:24:36.939Z,27.00
2019-02-28T11:26:35.911Z,26.90
2019-02-28T11:27:36.910Z,26.10
2019-02-28T11:28:37.835Z,26.00
2019-02-28T11:29:36.882Z,25.30
2019-02-28T11:30:36.872Z,26.70
2019-02-28T11:31:36.858Z,25.70
2019-02-28T11:32:36.863Z,26.00
2019-02-28T11:33:39.513Z,26.90
2019-02-28T11:34:36.854Z,26.40
2019-02-28T11:35:36.824Z,25.40
2019-02-28T11:36:36.804Z,27.10
2019-02-28T11:37:36.800Z,27.00
2019-02-28T11:38:36.774Z,28.20
2019-02-28T11:39:36.769Z,28.00
2019-02-28T11:40:36.807Z,28.70
2019-02-28T11:41:36.746Z,27.00
2019-02-28T11:42:36.739Z,25.20
2019-02-28T11:43:38.403Z,26.00
2019-02-28T11:44:36.714Z,25.60
2019-02-28T11:45:36.707Z,25.00
2019-02-28T11:46:36.762Z,25.00
2019-02-28T11:47:36.709Z,25.20
2019-02-28T11:48:36.665Z,26.70
2019-02-28T11:49:36.651Z,24.40
2019-02-28T11:50:41.230Z,25.50
2019-02-28T11:51:36.643Z,26.20
2019-02-28T11:52:36.654Z,26.60
2019-02-28T11:53:40.399Z,25.50
2019-02-28T11:54:36.598Z,25.40
2019-02-28T11:55:39.281Z,26.90
2019-02-28T11:56:36.583Z,26.50
2019-02-28T11:57:37.787Z,26.10
2019-02-28T11:58:36.554Z,26.20
2019-02-28T11:59:36.543Z,26.10
2019-02-28T12:00:36.750Z,26.20
2019-02-28T12:01:36.525Z,26.10
2019-02-28T12:02:36.510Z,26.30
2019-02-28T12:03:36.665Z,24.50
2019-02-28T12:04:37.498Z,26.20
2019-02-28T12:05:36.477Z,26.00
2019-02-28T12:06:36.463Z,26.40
2019-02-28T12:07:36.458Z,26.90
2019-02-28T12:08:41.480Z,23.90
2019-02-28T12:09:38.361Z,27.30
2019-02-28T12:10:36.413Z,27.20
2019-02-28T12:11:37.149Z,25.20
2019-02-28T12:12:36.422Z,26.90
2019-02-28T12:13:36.398Z,25.40
2019-02-28T12:14:36.405Z,25.90
2019-02-28T12:15:38.197Z,25.00
2019-02-28T12:16:36.359Z,25.90
2019-02-28T12:17:36.352Z,24.50
2019-02-28T12:18:39.505Z,26.70
2019-02-28T12:19:36.320Z,25.60
2019-02-28T12:20:36.328Z,26.50
2019-02-28T12:21:38.091Z,26.50
2019-02-28T12:22:36.347Z,27.20
2019-02-28T12:23:36.270Z,26.00
2019-02-28T12:24:36.271Z,26.00
2019-02-28T12:25:36.253Z,26.60
2019-02-28T12:26:36.279Z,25.70
2019-02-28T12:27:36.247Z,27.00
2019-02-28T12:28:38.475Z,27.70
2019-02-28T12:29:36.210Z,26.50
2019-02-28T12:30:36.209Z,27.20
2019-02-28T12:31:36.586Z,27.50
2019-02-28T12:32:36.225Z,27.00
2019-02-28T12:33:36.168Z,26.80
2019-02-28T12:34:36.147Z,26.60
2019-02-28T12:35:40.338Z,26.10
2019-02-28T12:36:36.159Z,27.10
2019-02-28T12:38:35.133Z,27.20
2019-02-28T12:39:36.992Z,27.30
2019-02-28T12:40:36.806Z,26.80
2019-02-28T12:41:36.075Z,26.70
2019-02-28T12:42:36.071Z,26.90
2019-02-28T12:43:36.087Z,28.00
2019-02-28T12:44:36.047Z,27.40
2019-02-28T12:45:36.031Z,27.50
2019-02-28T12:46:36.065Z,27.10
2019-02-28T12:47:38.626Z,27.10
2019-02-28T12:48:36.031Z,27.00
2019-02-28T12:49:35.982Z,28.10
2019-02-28T12:50:36.778Z,27.20
2019-02-28T12:51:36.524Z,26.80
2019-02-28T12:52:35.960Z,27.90
2019-02-28T12:53:35.995Z,29.20
2019-02-28T12:54:35.928Z,29.20
2019-02-28T12:55:38.800Z,27.30
2019-02-28T12:56:35.961Z,27.70
2019-02-28T12:57:36.765Z,27.70
2019-02-28T12:58:39.096Z,27.50
2019-02-28T12:59:35.905Z,27.70
2019-02-28T13:00:35.874Z,27.50
2019-02-28T13:01:35.876Z,27.60
2019-02-28T13:02:35.901Z,28.70
2019-02-28T13:03:35.871Z,29.60
2019-02-28T13:04:38.795Z,27.90
2019-02-28T13:05:35.841Z,28.60
2019-02-28T13:06:36.268Z,29.90
2019-02-28T13:07:35.787Z,28.60
2019-02-28T13:08:38.616Z,29.70
2019-02-28T13:09:35.761Z,28.70
2019-02-28T13:10:35.744Z,28.80
2019-02-28T13:13:34.725Z,28.60
2019-02-28T13:14:36.880Z,29.60
2019-02-28T13:15:35.740Z,28.60
2019-02-28T13:16:35.698Z,30.00
2019-02-28T13:17:35.775Z,29.30
2019-02-28T13:18:35.659Z,30.30